sensor_id;sensor_type;location;lat;lon;timestamp;P1;durP1;ratioP1;P2;durP2;ratioP2
61709;SDS011;47633;51.494;5.386;2022-09-13T00:00:51;6.35;;;2.80;;
61709;SDS011;47633;51.494;5.386;2022-09-13T00:03:18;6.15;;;2.65;;
61709;SDS011;47633;51.494;5.386;2022-09-13T00:05:44;7.75;;;2.80;;
61709;SDS011;47633;51.494;5.386;2022-09-13T00:08:09;5.40;;;2.97;;
61709;SDS011;47633;51.494;5.386;2022-09-13T00:10:36;5.22;;;3.03;;
61709;SDS011;47633;51.494;5.386;2022-09-13T00:13:03;5.20;;;2.75;;
61709;SDS011;47633;51.494;5.386;2022-09-13T00:15:29;7.65;;;3.17;;
61709;SDS011;47633;51.494;5.386;2022-09-13T00:17:55;5.35;;;2.88;;
61709;SDS011;47633;51.494;5.386;2022-09-13T00:20:20;6.40;;;2.92;;
61709;SDS011;47633;51.494;5.386;2022-09-13T00:22:46;5.18;;;2.72;;
61709;SDS011;47633;51.494;5.386;2022-09-13T00:25:11;4.63;;;2.80;;
61709;SDS011;47633;51.494;5.386;2022-09-13T00:27:36;6.05;;;2.85;;
61709;SDS011;47633;51.494;5.386;2022-09-13T00:30:03;6.10;;;2.95;;
61709;SDS011;47633;51.494;5.386;2022-09-13T00:32:29;5.20;;;2.67;;
61709;SDS011;47633;51.494;5.386;2022-09-13T00:34:55;4.55;;;2.60;;
61709;SDS011;47633;51.494;5.386;2022-09-13T00:37:20;5.00;;;2.75;;
61709;SDS011;47633;51.494;5.386;2022-09-13T00:39:45;5.22;;;2.85;;
61709;SDS011;47633;51.494;5.386;2022-09-13T00:42:11;4.80;;;2.87;;
61709;SDS011;47633;51.494;5.386;2022-09-13T00:47:38;4.68;;;2.50;;
61709;SDS011;47633;51.494;5.386;2022-09-13T00:50:18;5.28;;;2.95;;
61709;SDS011;47633;51.494;5.386;2022-09-13T00:52:54;5.40;;;2.85;;
61709;SDS011;47633;51.494;5.386;2022-09-13T00:55:27;5.45;;;2.58;;
61709;SDS011;47633;51.494;5.386;2022-09-13T00:57:57;5.65;;;2.75;;
61709;SDS011;47633;51.494;5.386;2022-09-13T01:00:27;5.10;;;2.75;;
61709;SDS011;47633;51.494;5.386;2022-09-13T01:02:53;5.18;;;2.83;;
61709;SDS011;47633;51.494;5.386;2022-09-13T01:05:26;5.40;;;3.25;;
61709;SDS011;47633;51.494;5.386;2022-09-13T01:08:02;6.13;;;2.85;;
61709;SDS011;47633;51.494;5.386;2022-09-13T01:10:34;5.53;;;3.00;;
61709;SDS011;47633;51.494;5.386;2022-09-13T01:13:05;5.50;;;2.80;;
61709;SDS011;47633;51.494;5.386;2022-09-13T01:15:39;4.32;;;2.60;;
61709;SDS011;47633;51.494;5.386;2022-09-13T01:18:08;5.78;;;2.80;;
61709;SDS011;47633;51.494;5.386;2022-09-13T01:20:45;4.88;;;2.80;;
61709;SDS011;47633;51.494;5.386;2022-09-13T01:32:32;5.07;;;2.88;;
61709;SDS011;47633;51.494;5.386;2022-09-13T01:52:34;4.75;;;2.80;;
61709;SDS011;47633;51.494;5.386;2022-09-13T01:57:40;5.32;;;3.28;;
61709;SDS011;47633;51.494;5.386;2022-09-13T02:00:15;4.45;;;2.70;;
61709;SDS011;47633;51.494;5.386;2022-09-13T02:02:47;5.18;;;2.97;;
61709;SDS011;47633;51.494;5.386;2022-09-13T02:05:21;5.32;;;2.78;;
61709;SDS011;47633;51.494;5.386;2022-09-13T02:08:04;5.97;;;2.70;;
61709;SDS011;47633;51.494;5.386;2022-09-13T02:10:36;5.50;;;2.92;;
61709;SDS011;47633;51.494;5.386;2022-09-13T02:13:05;4.63;;;2.72;;
61709;SDS011;47633;51.494;5.386;2022-09-13T02:15:38;3.85;;;2.47;;
61709;SDS011;47633;51.494;5.386;2022-09-13T02:18:09;4.85;;;2.60;;
61709;SDS011;47633;51.494;5.386;2022-09-13T02:20:41;5.03;;;3.03;;
61709;SDS011;47633;51.494;5.386;2022-09-13T02:23:11;4.75;;;2.72;;
61709;SDS011;47633;51.494;5.386;2022-09-13T02:25:40;5.32;;;2.90;;
61709;SDS011;47633;51.494;5.386;2022-09-13T02:28:10;4.80;;;3.00;;
61709;SDS011;47633;51.494;5.386;2022-09-13T02:30:40;4.65;;;2.83;;
61709;SDS011;47633;51.494;5.386;2022-09-13T02:33:11;4.85;;;2.75;;
61709;SDS011;47633;51.494;5.386;2022-09-13T02:35:50;4.80;;;2.85;;
61709;SDS011;47633;51.494;5.386;2022-09-13T02:38:20;4.40;;;2.80;;
61709;SDS011;47633;51.494;5.386;2022-09-13T02:40:56;5.50;;;3.15;;
61709;SDS011;47633;51.494;5.386;2022-09-13T02:43:45;4.25;;;2.60;;
61709;SDS011;47633;51.494;5.386;2022-09-13T03:01:03;4.45;;;3.00;;
61709;SDS011;47633;51.494;5.386;2022-09-13T03:03:28;5.72;;;3.10;;
61709;SDS011;47633;51.494;5.386;2022-09-13T03:05:54;5.57;;;2.78;;
61709;SDS011;47633;51.494;5.386;2022-09-13T03:08:19;4.33;;;2.50;;
61709;SDS011;47633;51.494;5.386;2022-09-13T03:16:17;5.22;;;2.70;;
61709;SDS011;47633;51.494;5.386;2022-09-13T03:22:42;4.95;;;2.47;;
61709;SDS011;47633;51.494;5.386;2022-09-13T03:27:32;4.93;;;2.60;;
61709;SDS011;47633;51.494;5.386;2022-09-13T03:30:12;5.72;;;2.80;;
61709;SDS011;47633;51.494;5.386;2022-09-13T03:35:32;4.90;;;2.80;;
61709;SDS011;47633;51.494;5.386;2022-09-13T03:38:07;5.00;;;2.47;;
61709;SDS011;47633;51.494;5.386;2022-09-13T03:43:44;4.43;;;2.80;;
61709;SDS011;47633;51.494;5.386;2022-09-13T03:46:14;4.75;;;2.75;;
61709;SDS011;47633;51.494;5.386;2022-09-13T03:48:45;5.35;;;2.33;;
61709;SDS011;47633;51.494;5.386;2022-09-13T03:51:11;3.80;;;2.50;;
61709;SDS011;47633;51.494;5.386;2022-09-13T03:53:39;6.32;;;3.00;;
61709;SDS011;47633;51.494;5.386;2022-09-13T03:56:16;4.18;;;2.47;;
61709;SDS011;47633;51.494;5.386;2022-09-13T03:58:44;4.63;;;2.80;;
61709;SDS011;47633;51.494;5.386;2022-09-13T04:01:10;4.88;;;2.95;;
61709;SDS011;47633;51.494;5.386;2022-09-13T04:03:36;4.05;;;2.53;;
61709;SDS011;47633;51.494;5.386;2022-09-13T04:06:02;5.53;;;3.05;;
61709;SDS011;47633;51.494;5.386;2022-09-13T04:08:27;5.47;;;2.83;;
61709;SDS011;47633;51.494;5.386;2022-09-13T04:10:53;6.23;;;3.00;;
61709;SDS011;47633;51.494;5.386;2022-09-13T04:13:18;5.00;;;2.85;;
61709;SDS011;47633;51.494;5.386;2022-09-13T04:15:45;4.38;;;2.80;;
61709;SDS011;47633;51.494;5.386;2022-09-13T04:18:10;5.00;;;2.73;;
61709;SDS011;47633;51.494;5.386;2022-09-13T04:20:36;5.45;;;2.90;;
61709;SDS011;47633;51.494;5.386;2022-09-13T04:23:01;5.17;;;2.77;;
61709;SDS011;47633;51.494;5.386;2022-09-13T04:25:26;5.57;;;2.87;;
61709;SDS011;47633;51.494;5.386;2022-09-13T04:27:55;5.47;;;2.70;;
61709;SDS011;47633;51.494;5.386;2022-09-13T04:30:23;5.30;;;2.92;;
61709;SDS011;47633;51.494;5.386;2022-09-13T04:32:49;5.82;;;2.85;;
61709;SDS011;47633;51.494;5.386;2022-09-13T04:35:14;5.68;;;2.72;;
61709;SDS011;47633;51.494;5.386;2022-09-13T04:37:43;4.72;;;2.75;;
61709;SDS011;47633;51.494;5.386;2022-09-13T04:40:09;4.25;;;2.90;;
61709;SDS011;47633;51.494;5.386;2022-09-13T04:42:35;5.50;;;2.90;;
61709;SDS011;47633;51.494;5.386;2022-09-13T04:45:01;4.40;;;2.80;;
61709;SDS011;47633;51.494;5.386;2022-09-13T04:47:26;5.25;;;2.60;;
61709;SDS011;47633;51.494;5.386;2022-09-13T04:49:51;5.30;;;2.87;;
61709;SDS011;47633;51.494;5.386;2022-09-13T04:52:17;5.30;;;2.87;;
61709;SDS011;47633;51.494;5.386;2022-09-13T04:54:42;4.68;;;3.03;;
61709;SDS011;47633;51.494;5.386;2022-09-13T04:57:07;4.82;;;2.90;;
61709;SDS011;47633;51.494;5.386;2022-09-13T04:59:33;7.10;;;3.05;;
61709;SDS011;47633;51.494;5.386;2022-09-13T05:01:58;4.97;;;2.70;;
61709;SDS011;47633;51.494;5.386;2022-09-13T05:04:23;5.60;;;2.70;;
61709;SDS011;47633;51.494;5.386;2022-09-13T05:06:49;4.70;;;2.77;;
61709;SDS011;47633;51.494;5.386;2022-09-13T05:09:14;5.10;;;2.85;;
61709;SDS011;47633;51.494;5.386;2022-09-13T05:11:40;4.35;;;2.83;;
61709;SDS011;47633;51.494;5.386;2022-09-13T05:14:07;4.38;;;2.70;;
61709;SDS011;47633;51.494;5.386;2022-09-13T05:16:34;4.53;;;3.05;;
61709;SDS011;47633;51.494;5.386;2022-09-13T05:18:59;4.72;;;3.10;;
61709;SDS011;47633;51.494;5.386;2022-09-13T05:21:25;4.28;;;2.72;;
61709;SDS011;47633;51.494;5.386;2022-09-13T05:23:52;4.95;;;3.05;;
61709;SDS011;47633;51.494;5.386;2022-09-13T05:26:19;5.93;;;2.90;;
61709;SDS011;47633;51.494;5.386;2022-09-13T05:28:46;4.95;;;3.10;;
61709;SDS011;47633;51.494;5.386;2022-09-13T05:31:12;5.10;;;2.90;;
61709;SDS011;47633;51.494;5.386;2022-09-13T05:33:43;4.07;;;2.65;;
61709;SDS011;47633;51.494;5.386;2022-09-13T05:36:09;6.32;;;2.90;;
61709;SDS011;47633;51.494;5.386;2022-09-13T05:38:35;6.75;;;4.28;;
61709;SDS011;47633;51.494;5.386;2022-09-13T05:41:01;4.97;;;2.75;;
61709;SDS011;47633;51.494;5.386;2022-09-13T05:43:29;4.68;;;2.75;;
61709;SDS011;47633;51.494;5.386;2022-09-13T05:46:15;5.55;;;3.00;;
61709;SDS011;47633;51.494;5.386;2022-09-13T05:48:43;4.82;;;2.92;;
61709;SDS011;47633;51.494;5.386;2022-09-13T05:51:10;5.18;;;2.90;;
61709;SDS011;47633;51.494;5.386;2022-09-13T05:53:44;5.40;;;2.85;;
61709;SDS011;47633;51.494;5.386;2022-09-13T05:56:11;6.68;;;2.72;;
61709;SDS011;47633;51.494;5.386;2022-09-13T05:58:42;5.43;;;2.88;;
61709;SDS011;47633;51.494;5.386;2022-09-13T06:01:09;5.88;;;3.00;;
61709;SDS011;47633;51.494;5.386;2022-09-13T06:03:36;4.15;;;2.60;;
61709;SDS011;47633;51.494;5.386;2022-09-13T06:06:01;5.63;;;2.90;;
61709;SDS011;47633;51.494;5.386;2022-09-13T06:08:28;5.10;;;2.70;;
61709;SDS011;47633;51.494;5.386;2022-09-13T06:10:55;6.40;;;2.95;;
61709;SDS011;47633;51.494;5.386;2022-09-13T06:13:22;5.00;;;2.90;;
61709;SDS011;47633;51.494;5.386;2022-09-13T06:15:47;4.75;;;2.72;;
61709;SDS011;47633;51.494;5.386;2022-09-13T06:18:13;5.70;;;2.90;;
61709;SDS011;47633;51.494;5.386;2022-09-13T06:20:38;5.10;;;2.70;;
61709;SDS011;47633;51.494;5.386;2022-09-13T06:23:03;6.27;;;2.90;;
61709;SDS011;47633;51.494;5.386;2022-09-13T06:25:28;5.55;;;2.92;;
61709;SDS011;47633;51.494;5.386;2022-09-13T06:27:54;4.68;;;2.70;;
61709;SDS011;47633;51.494;5.386;2022-09-13T06:30:20;6.17;;;2.93;;
61709;SDS011;47633;51.494;5.386;2022-09-13T06:32:45;4.17;;;2.67;;
61709;SDS011;47633;51.494;5.386;2022-09-13T06:35:10;6.47;;;2.70;;
61709;SDS011;47633;51.494;5.386;2022-09-13T06:37:35;5.33;;;2.70;;
61709;SDS011;47633;51.494;5.386;2022-09-13T06:40:01;5.40;;;2.88;;
61709;SDS011;47633;51.494;5.386;2022-09-13T06:42:29;4.82;;;2.65;;
61709;SDS011;47633;51.494;5.386;2022-09-13T06:44:54;5.55;;;2.75;;
61709;SDS011;47633;51.494;5.386;2022-09-13T06:47:19;5.43;;;2.70;;
61709;SDS011;47633;51.494;5.386;2022-09-13T06:49:45;6.00;;;3.00;;
61709;SDS011;47633;51.494;5.386;2022-09-13T06:52:10;5.97;;;2.90;;
61709;SDS011;47633;51.494;5.386;2022-09-13T06:54:35;5.10;;;2.95;;
61709;SDS011;47633;51.494;5.386;2022-09-13T06:57:01;5.23;;;3.00;;
61709;SDS011;47633;51.494;5.386;2022-09-13T06:59:27;4.30;;;2.72;;
61709;SDS011;47633;51.494;5.386;2022-09-13T07:01:52;6.43;;;2.87;;
61709;SDS011;47633;51.494;5.386;2022-09-13T07:04:17;6.00;;;2.80;;
61709;SDS011;47633;51.494;5.386;2022-09-13T07:06:46;5.38;;;3.05;;
61709;SDS011;47633;51.494;5.386;2022-09-13T07:09:14;5.85;;;2.85;;
61709;SDS011;47633;51.494;5.386;2022-09-13T07:11:42;5.68;;;3.15;;
61709;SDS011;47633;51.494;5.386;2022-09-13T07:14:10;4.93;;;3.00;;
61709;SDS011;47633;51.494;5.386;2022-09-13T07:16:38;4.97;;;2.92;;
61709;SDS011;47633;51.494;5.386;2022-09-13T07:19:05;7.78;;;3.25;;
61709;SDS011;47633;51.494;5.386;2022-09-13T07:21:33;5.47;;;3.30;;
61709;SDS011;47633;51.494;5.386;2022-09-13T07:23:59;4.40;;;2.92;;
61709;SDS011;47633;51.494;5.386;2022-09-13T07:26:25;5.72;;;3.15;;
61709;SDS011;47633;51.494;5.386;2022-09-13T07:28:52;6.90;;;3.03;;
61709;SDS011;47633;51.494;5.386;2022-09-13T07:31:19;5.22;;;2.85;;
61709;SDS011;47633;51.494;5.386;2022-09-13T07:33:44;5.03;;;3.13;;
61709;SDS011;47633;51.494;5.386;2022-09-13T07:36:11;6.47;;;3.08;;
61709;SDS011;47633;51.494;5.386;2022-09-13T07:38:37;6.30;;;3.20;;
61709;SDS011;47633;51.494;5.386;2022-09-13T07:41:04;5.55;;;2.80;;
61709;SDS011;47633;51.494;5.386;2022-09-13T07:43:32;5.80;;;3.28;;
61709;SDS011;47633;51.494;5.386;2022-09-13T07:45:59;5.70;;;3.40;;
61709;SDS011;47633;51.494;5.386;2022-09-13T07:48:27;5.05;;;3.20;;
61709;SDS011;47633;51.494;5.386;2022-09-13T07:51:03;6.75;;;3.70;;
61709;SDS011;47633;51.494;5.386;2022-09-13T07:53:40;7.75;;;3.42;;
61709;SDS011;47633;51.494;5.386;2022-09-13T07:56:07;5.07;;;3.45;;
61709;SDS011;47633;51.494;5.386;2022-09-13T07:58:38;6.00;;;3.33;;
61709;SDS011;47633;51.494;5.386;2022-09-13T08:01:23;6.88;;;3.72;;
61709;SDS011;47633;51.494;5.386;2022-09-13T08:03:51;5.72;;;3.58;;
61709;SDS011;47633;51.494;5.386;2022-09-13T08:06:16;5.45;;;3.67;;
61709;SDS011;47633;51.494;5.386;2022-09-13T08:08:42;7.28;;;3.70;;
61709;SDS011;47633;51.494;5.386;2022-09-13T08:11:07;5.25;;;3.53;;
61709;SDS011;47633;51.494;5.386;2022-09-13T08:13:32;6.22;;;3.70;;
61709;SDS011;47633;51.494;5.386;2022-09-13T08:16:02;8.15;;;3.90;;
61709;SDS011;47633;51.494;5.386;2022-09-13T08:18:28;6.72;;;3.60;;
61709;SDS011;47633;51.494;5.386;2022-09-13T08:20:57;7.07;;;3.50;;
61709;SDS011;47633;51.494;5.386;2022-09-13T08:23:23;5.13;;;3.50;;
61709;SDS011;47633;51.494;5.386;2022-09-13T08:25:49;6.63;;;3.53;;
61709;SDS011;47633;51.494;5.386;2022-09-13T08:28:15;5.25;;;3.60;;
61709;SDS011;47633;51.494;5.386;2022-09-13T08:30:42;6.10;;;3.80;;
61709;SDS011;47633;51.494;5.386;2022-09-13T08:33:09;6.00;;;3.63;;
61709;SDS011;47633;51.494;5.386;2022-09-13T08:35:36;5.45;;;3.50;;
61709;SDS011;47633;51.494;5.386;2022-09-13T08:38:02;5.95;;;3.50;;
61709;SDS011;47633;51.494;5.386;2022-09-13T08:40:29;5.15;;;3.50;;
61709;SDS011;47633;51.494;5.386;2022-09-13T08:45:35;5.45;;;3.60;;
61709;SDS011;47633;51.494;5.386;2022-09-13T08:48:06;5.40;;;3.70;;
61709;SDS011;47633;51.494;5.386;2022-09-13T08:50:38;4.70;;;3.40;;
61709;SDS011;47633;51.494;5.386;2022-09-13T09:01:15;6.32;;;3.70;;
61709;SDS011;47633;51.494;5.386;2022-09-13T09:03:48;4.43;;;3.03;;
61709;SDS011;47633;51.494;5.386;2022-09-13T09:06:20;5.18;;;3.28;;
61709;SDS011;47633;51.494;5.386;2022-09-13T09:08:51;7.03;;;3.55;;
61709;SDS011;47633;51.494;5.386;2022-09-13T09:11:34;5.50;;;3.53;;
61709;SDS011;47633;51.494;5.386;2022-09-13T09:14:23;6.00;;;3.70;;
61709;SDS011;47633;51.494;5.386;2022-09-13T09:17:02;5.15;;;3.38;;
61709;SDS011;47633;51.494;5.386;2022-09-13T09:19:35;4.80;;;3.20;;
61709;SDS011;47633;51.494;5.386;2022-09-13T09:22:05;5.32;;;3.10;;
61709;SDS011;47633;51.494;5.386;2022-09-13T09:24:41;4.85;;;3.03;;
61709;SDS011;47633;51.494;5.386;2022-09-13T09:27:13;5.53;;;3.25;;
61709;SDS011;47633;51.494;5.386;2022-09-13T09:29:40;6.97;;;3.00;;
61709;SDS011;47633;51.494;5.386;2022-09-13T09:37:25;4.70;;;2.90;;
61709;SDS011;47633;51.494;5.386;2022-09-13T09:39:53;6.20;;;3.10;;
61709;SDS011;47633;51.494;5.386;2022-09-13T09:42:26;5.72;;;3.47;;
61709;SDS011;47633;51.494;5.386;2022-09-13T09:44:57;5.00;;;3.30;;
61709;SDS011;47633;51.494;5.386;2022-09-13T09:47:27;5.65;;;3.53;;
61709;SDS011;47633;51.494;5.386;2022-09-13T09:50:02;8.40;;;3.33;;
61709;SDS011;47633;51.494;5.386;2022-09-13T09:52:37;5.07;;;3.33;;
61709;SDS011;47633;51.494;5.386;2022-09-13T09:55:09;5.53;;;3.22;;
61709;SDS011;47633;51.494;5.386;2022-09-13T10:00:35;5.97;;;2.77;;
61709;SDS011;47633;51.494;5.386;2022-09-13T10:03:07;7.28;;;3.88;;
61709;SDS011;47633;51.494;5.386;2022-09-13T10:05:42;6.13;;;3.10;;
61709;SDS011;47633;51.494;5.386;2022-09-13T10:08:11;5.22;;;2.80;;
61709;SDS011;47633;51.494;5.386;2022-09-13T10:10:51;6.93;;;3.10;;
61709;SDS011;47633;51.494;5.386;2022-09-13T10:13:19;5.43;;;3.00;;
61709;SDS011;47633;51.494;5.386;2022-09-13T10:15:52;5.95;;;3.17;;
61709;SDS011;47633;51.494;5.386;2022-09-13T10:18:20;4.85;;;2.78;;
61709;SDS011;47633;51.494;5.386;2022-09-13T10:23:42;6.82;;;3.17;;
61709;SDS011;47633;51.494;5.386;2022-09-13T10:26:09;4.45;;;2.60;;
61709;SDS011;47633;51.494;5.386;2022-09-13T10:28:42;5.05;;;3.42;;
61709;SDS011;47633;51.494;5.386;2022-09-13T10:31:15;5.10;;;2.80;;
61709;SDS011;47633;51.494;5.386;2022-09-13T10:38:56;5.38;;;2.70;;
61709;SDS011;47633;51.494;5.386;2022-09-13T10:41:29;5.50;;;2.53;;
61709;SDS011;47633;51.494;5.386;2022-09-13T10:43:57;4.90;;;2.85;;
61709;SDS011;47633;51.494;5.386;2022-09-13T10:46:31;5.20;;;2.67;;
61709;SDS011;47633;51.494;5.386;2022-09-13T10:49:00;4.70;;;2.40;;
61709;SDS011;47633;51.494;5.386;2022-09-13T10:56:50;6.25;;;2.70;;
61709;SDS011;47633;51.494;5.386;2022-09-13T11:02:01;5.40;;;3.20;;
61709;SDS011;47633;51.494;5.386;2022-09-13T11:04:46;5.55;;;3.60;;
61709;SDS011;47633;51.494;5.386;2022-09-13T11:10:19;7.40;;;4.10;;
61709;SDS011;47633;51.494;5.386;2022-09-13T11:12:59;7.13;;;4.50;;
61709;SDS011;47633;51.494;5.386;2022-09-13T11:18:18;10.30;;;5.07;;
61709;SDS011;47633;51.494;5.386;2022-09-13T11:40:28;8.38;;;4.60;;
61709;SDS011;47633;51.494;5.386;2022-09-13T11:43:03;6.72;;;5.00;;
61709;SDS011;47633;51.494;5.386;2022-09-13T11:45:53;11.25;;;5.13;;
61709;SDS011;47633;51.494;5.386;2022-09-13T11:48:38;10.50;;;5.30;;
61709;SDS011;47633;51.494;5.386;2022-09-13T11:51:18;7.25;;;4.75;;
61709;SDS011;47633;51.494;5.386;2022-09-13T11:54:15;9.20;;;5.20;;
61709;SDS011;47633;51.494;5.386;2022-09-13T11:56:52;7.88;;;5.30;;
61709;SDS011;47633;51.494;5.386;2022-09-13T12:02:10;9.85;;;5.15;;
61709;SDS011;47633;51.494;5.386;2022-09-13T12:05:04;6.35;;;4.65;;
61709;SDS011;47633;51.494;5.386;2022-09-13T12:07:37;8.30;;;4.97;;
61709;SDS011;47633;51.494;5.386;2022-09-13T12:10:28;9.00;;;5.15;;
61709;SDS011;47633;51.494;5.386;2022-09-13T12:12:56;10.00;;;5.53;;
61709;SDS011;47633;51.494;5.386;2022-09-13T12:18:07;8.93;;;5.05;;
61709;SDS011;47633;51.494;5.386;2022-09-13T12:20:49;10.95;;;5.60;;
61709;SDS011;47633;51.494;5.386;2022-09-13T12:23:29;7.80;;;5.28;;
61709;SDS011;47633;51.494;5.386;2022-09-13T12:25:59;10.35;;;5.47;;
61709;SDS011;47633;51.494;5.386;2022-09-13T12:28:29;8.70;;;5.32;;
61709;SDS011;47633;51.494;5.386;2022-09-13T12:31:01;8.95;;;5.07;;
61709;SDS011;47633;51.494;5.386;2022-09-13T12:33:30;7.70;;;4.93;;
61709;SDS011;47633;51.494;5.386;2022-09-13T12:36:15;8.52;;;4.88;;
61709;SDS011;47633;51.494;5.386;2022-09-13T12:47:36;7.80;;;4.57;;
61709;SDS011;47633;51.494;5.386;2022-09-13T13:01:08;7.13;;;4.35;;
61709;SDS011;47633;51.494;5.386;2022-09-13T13:06:57;7.32;;;4.75;;
61709;SDS011;47633;51.494;5.386;2022-09-13T13:09:42;6.07;;;4.15;;
61709;SDS011;47633;51.494;5.386;2022-09-13T13:12:10;6.85;;;4.50;;
61709;SDS011;47633;51.494;5.386;2022-09-13T13:14:49;8.18;;;4.75;;
61709;SDS011;47633;51.494;5.386;2022-09-13T13:17:33;5.90;;;4.38;;
61709;SDS011;47633;51.494;5.386;2022-09-13T13:19:59;6.20;;;4.53;;
61709;SDS011;47633;51.494;5.386;2022-09-13T13:28:02;6.82;;;4.55;;
61709;SDS011;47633;51.494;5.386;2022-09-13T13:33:17;6.75;;;4.50;;
61709;SDS011;47633;51.494;5.386;2022-09-13T13:35:49;6.25;;;4.50;;
61709;SDS011;47633;51.494;5.386;2022-09-13T13:41:34;7.03;;;4.28;;
61709;SDS011;47633;51.494;5.386;2022-09-13T13:44:00;5.85;;;4.55;;
61709;SDS011;47633;51.494;5.386;2022-09-13T13:46:29;7.25;;;4.55;;
61709;SDS011;47633;51.494;5.386;2022-09-13T13:49:34;6.88;;;4.50;;
61709;SDS011;47633;51.494;5.386;2022-09-13T14:07:56;6.43;;;4.30;;
61709;SDS011;47633;51.494;5.386;2022-09-13T14:10:57;7.90;;;4.70;;
61709;SDS011;47633;51.494;5.386;2022-09-13T14:18:57;5.95;;;4.00;;
61709;SDS011;47633;51.494;5.386;2022-09-13T14:21:34;8.65;;;4.65;;
61709;SDS011;47633;51.494;5.386;2022-09-13T14:24:15;6.55;;;4.30;;
61709;SDS011;47633;51.494;5.386;2022-09-13T14:26:47;6.13;;;3.88;;
61709;SDS011;47633;51.494;5.386;2022-09-13T14:29:17;7.00;;;3.75;;
61709;SDS011;47633;51.494;5.386;2022-09-13T14:31:45;8.13;;;4.10;;
61709;SDS011;47633;51.494;5.386;2022-09-13T14:34:23;6.55;;;4.00;;
61709;SDS011;47633;51.494;5.386;2022-09-13T14:36:53;6.60;;;4.00;;
61709;SDS011;47633;51.494;5.386;2022-09-13T14:39:20;5.97;;;3.95;;
61709;SDS011;47633;51.494;5.386;2022-09-13T14:41:46;5.70;;;3.67;;
61709;SDS011;47633;51.494;5.386;2022-09-13T14:46:48;5.28;;;3.75;;
61709;SDS011;47633;51.494;5.386;2022-09-13T14:49:23;8.27;;;3.85;;
61709;SDS011;47633;51.494;5.386;2022-09-13T14:51:51;6.60;;;3.45;;
61709;SDS011;47633;51.494;5.386;2022-09-13T14:54:36;6.78;;;3.75;;
61709;SDS011;47633;51.494;5.386;2022-09-13T14:57:07;4.95;;;3.50;;
61709;SDS011;47633;51.494;5.386;2022-09-13T14:59:45;5.50;;;3.88;;
61709;SDS011;47633;51.494;5.386;2022-09-13T15:04:52;7.13;;;3.35;;
61709;SDS011;47633;51.494;5.386;2022-09-13T15:10:09;6.57;;;3.58;;
61709;SDS011;47633;51.494;5.386;2022-09-13T15:17:57;5.97;;;3.63;;
61709;SDS011;47633;51.494;5.386;2022-09-13T15:23:50;5.30;;;3.97;;
61709;SDS011;47633;51.494;5.386;2022-09-13T15:26:19;5.45;;;3.50;;
61709;SDS011;47633;51.494;5.386;2022-09-13T15:28:52;4.95;;;3.65;;
61709;SDS011;47633;51.494;5.386;2022-09-13T15:31:21;6.70;;;3.88;;
61709;SDS011;47633;51.494;5.386;2022-09-13T15:37:08;6.65;;;3.80;;
61709;SDS011;47633;51.494;5.386;2022-09-13T15:39:45;5.97;;;3.43;;
61709;SDS011;47633;51.494;5.386;2022-09-13T15:42:12;6.15;;;3.97;;
61709;SDS011;47633;51.494;5.386;2022-09-13T15:44:37;6.40;;;3.90;;
61709;SDS011;47633;51.494;5.386;2022-09-13T15:47:07;4.57;;;3.33;;
61709;SDS011;47633;51.494;5.386;2022-09-13T15:49:34;5.15;;;3.67;;
61709;SDS011;47633;51.494;5.386;2022-09-13T15:52:06;5.88;;;3.92;;
61709;SDS011;47633;51.494;5.386;2022-09-13T15:54:36;6.38;;;3.97;;
61709;SDS011;47633;51.494;5.386;2022-09-13T15:57:16;5.40;;;3.47;;
61709;SDS011;47633;51.494;5.386;2022-09-13T15:59:45;6.93;;;3.67;;
61709;SDS011;47633;51.494;5.386;2022-09-13T16:02:17;5.33;;;3.47;;
61709;SDS011;47633;51.494;5.386;2022-09-13T16:04:44;4.15;;;3.10;;
61709;SDS011;47633;51.494;5.386;2022-09-13T16:07:10;6.72;;;3.88;;
61709;SDS011;47633;51.494;5.386;2022-09-13T16:09:36;5.80;;;3.47;;
61709;SDS011;47633;51.494;5.386;2022-09-13T16:12:02;8.75;;;3.53;;
61709;SDS011;47633;51.494;5.386;2022-09-13T16:14:28;6.50;;;3.55;;
61709;SDS011;47633;51.494;5.386;2022-09-13T16:16:53;6.28;;;3.55;;
61709;SDS011;47633;51.494;5.386;2022-09-13T16:19:20;5.15;;;3.40;;
61709;SDS011;47633;51.494;5.386;2022-09-13T16:21:47;5.65;;;3.63;;
61709;SDS011;47633;51.494;5.386;2022-09-13T16:24:13;9.25;;;3.47;;
61709;SDS011;47633;51.494;5.386;2022-09-13T16:26:39;6.43;;;3.38;;
61709;SDS011;47633;51.494;5.386;2022-09-13T16:29:04;5.47;;;3.25;;
61709;SDS011;47633;51.494;5.386;2022-09-13T16:31:30;5.63;;;3.42;;
61709;SDS011;47633;51.494;5.386;2022-09-13T16:33:56;6.97;;;3.40;;
61709;SDS011;47633;51.494;5.386;2022-09-13T16:36:23;5.25;;;3.67;;
61709;SDS011;47633;51.494;5.386;2022-09-13T16:38:56;6.75;;;3.35;;
61709;SDS011;47633;51.494;5.386;2022-09-13T16:41:21;6.47;;;3.38;;
61709;SDS011;47633;51.494;5.386;2022-09-13T16:43:50;6.47;;;3.45;;
61709;SDS011;47633;51.494;5.386;2022-09-13T16:46:15;5.10;;;3.10;;
61709;SDS011;47633;51.494;5.386;2022-09-13T16:48:41;5.20;;;3.28;;
61709;SDS011;47633;51.494;5.386;2022-09-13T16:51:08;5.60;;;3.40;;
61709;SDS011;47633;51.494;5.386;2022-09-13T16:53:35;7.28;;;3.35;;
61709;SDS011;47633;51.494;5.386;2022-09-13T16:56:03;6.40;;;3.38;;
61709;SDS011;47633;51.494;5.386;2022-09-13T16:58:36;7.47;;;3.28;;
61709;SDS011;47633;51.494;5.386;2022-09-13T17:01:09;6.28;;;3.28;;
61709;SDS011;47633;51.494;5.386;2022-09-13T17:03:36;4.85;;;3.05;;
61709;SDS011;47633;51.494;5.386;2022-09-13T17:06:03;5.00;;;3.20;;
61709;SDS011;47633;51.494;5.386;2022-09-13T17:08:33;7.57;;;3.00;;
61709;SDS011;47633;51.494;5.386;2022-09-13T17:11:03;6.50;;;3.20;;
61709;SDS011;47633;51.494;5.386;2022-09-13T17:13:33;4.43;;;3.00;;
61709;SDS011;47633;51.494;5.386;2022-09-13T17:16:00;4.68;;;2.83;;
61709;SDS011;47633;51.494;5.386;2022-09-13T17:18:25;5.45;;;3.10;;
61709;SDS011;47633;51.494;5.386;2022-09-13T17:20:50;5.65;;;2.88;;
61709;SDS011;47633;51.494;5.386;2022-09-13T17:23:16;5.33;;;2.87;;
61709;SDS011;47633;51.494;5.386;2022-09-13T17:25:42;4.13;;;2.80;;
61709;SDS011;47633;51.494;5.386;2022-09-13T17:28:10;5.18;;;3.17;;
61709;SDS011;47633;51.494;5.386;2022-09-13T17:30:36;4.55;;;2.83;;
61709;SDS011;47633;51.494;5.386;2022-09-13T17:33:02;7.63;;;3.33;;
61709;SDS011;47633;51.494;5.386;2022-09-13T17:35:30;4.88;;;2.85;;
61709;SDS011;47633;51.494;5.386;2022-09-13T17:37:56;5.43;;;3.13;;
61709;SDS011;47633;51.494;5.386;2022-09-13T17:40:23;5.43;;;3.03;;
61709;SDS011;47633;51.494;5.386;2022-09-13T17:42:48;4.87;;;2.80;;
61709;SDS011;47633;51.494;5.386;2022-09-13T17:45:14;4.55;;;3.00;;
61709;SDS011;47633;51.494;5.386;2022-09-13T17:47:40;4.75;;;2.92;;
61709;SDS011;47633;51.494;5.386;2022-09-13T17:50:05;4.77;;;2.93;;
61709;SDS011;47633;51.494;5.386;2022-09-13T17:52:31;4.50;;;2.67;;
61709;SDS011;47633;51.494;5.386;2022-09-13T17:54:57;4.90;;;2.97;;
61709;SDS011;47633;51.494;5.386;2022-09-13T17:57:22;5.30;;;2.90;;
61709;SDS011;47633;51.494;5.386;2022-09-13T17:59:48;6.07;;;3.00;;
61709;SDS011;47633;51.494;5.386;2022-09-13T18:02:13;4.93;;;2.95;;
61709;SDS011;47633;51.494;5.386;2022-09-13T18:04:39;3.97;;;2.60;;
61709;SDS011;47633;51.494;5.386;2022-09-13T18:07:04;4.60;;;2.92;;
61709;SDS011;47633;51.494;5.386;2022-09-13T18:09:30;4.88;;;3.20;;
61709;SDS011;47633;51.494;5.386;2022-09-13T18:11:55;5.68;;;3.60;;
61709;SDS011;47633;51.494;5.386;2022-09-13T18:14:21;6.10;;;3.50;;
61709;SDS011;47633;51.494;5.386;2022-09-13T18:16:47;5.45;;;3.88;;
61709;SDS011;47633;51.494;5.386;2022-09-13T18:19:19;5.45;;;3.72;;
61709;SDS011;47633;51.494;5.386;2022-09-13T18:21:45;6.28;;;4.20;;
61709;SDS011;47633;51.494;5.386;2022-09-13T18:24:10;6.20;;;3.87;;
61709;SDS011;47633;51.494;5.386;2022-09-13T18:26:36;8.75;;;4.32;;
61709;SDS011;47633;51.494;5.386;2022-09-13T18:29:03;6.93;;;4.30;;